Time;durP1;ratioP1;P1;durP2;ratioP2;P2;SDS_P1;SDS_P2;PMS_P1;PMS_P2;Temp;Humidity;BMP_temperature;BMP_pressure;BME280_temperature;BME280_humidity;BME280_pressure;Samples;Min_cycle;Max_cycle;Signal;HPM_P1;HPM_P2
2021/03/20 00:00:24;;;;;;;;;;;21.70;33.40;;;;;;467553;253;1085;-46
2021/03/20 00:02:25;;;;;;;;;;;21.60;33.30;;;;;;468765;253;2200;-46
2021/03/20 00:04:27;;;;;;;;;;;21.70;33.40;;;;;;466952;253;1236;-46
2021/03/20 00:06:28;;;;;;;;;;;21.70;33.30;;;;;;468130;255;1346;-46
2021/03/20 00:08:29;;;;;;;;;;;21.70;33.30;;;;;;467885;254;1202;-46
2021/03/20 00:10:30;;;;;;;;;;;21.70;33.40;;;;;;467839;254;1132;-46
2021/03/20 00:12:32;;;;;;;;;;;21.60;33.40;;;;;;467788;254;1255;-45
2021/03/20 00:14:33;;;;;;;;;;;21.70;33.40;;;;;;467772;252;1034;-46
2021/03/20 00:16:34;;;;;;;;;;;21.70;33.40;;;;;;468791;253;1335;-46
2021/03/20 00:18:36;;;;;;;;;;;21.70;33.40;;;;;;467137;252;1016;-46
2021/03/20 00:20:37;;;;;;;;;;;21.70;33.30;;;;;;467830;255;1196;-46
2021/03/20 00:22:38;;;;;;;;;;;21.70;33.40;;;;;;467565;252;2144;-45
2021/03/20 00:24:39;;;;;;;;;;;21.70;33.30;;;;;;468960;253;1075;-46
2021/03/20 00:26:41;;;;;;;;;;;21.70;33.40;;;;;;467041;254;1429;-45
2021/03/20 00:28:42;;;;;;;;;;;21.70;33.30;;;;;;467793;255;1065;-46
2021/03/20 00:30:43;;;;;;;;;;;21.70;33.30;;;;;;467513;253;1125;-46
2021/03/20 00:32:45;;;;;;;;;;;21.70;33.40;;;;;;468848;252;1018;-46
2021/03/20 00:34:46;;;;;;;;;;;21.70;33.40;;;;;;467117;252;1280;-46
2021/03/20 00:36:47;;;;;;;;;;;21.70;33.30;;;;;;467916;253;1127;-46
2021/03/20 00:38:49;;;;;;;;;;;21.70;33.30;;;;;;469160;254;1086;-46
2021/03/20 00:40:50;;;;;;;;;;;21.70;33.40;;;;;;469611;254;1093;-46
2021/03/20 00:42:51;;;;;;;;;;;21.70;33.30;;;;;;467559;252;2201;-46
2021/03/20 00:44:53;;;;;;;;;;;21.70;33.40;;;;;;468819;253;1074;-46
2021/03/20 00:46:54;;;;;;;;;;;21.70;33.30;;;;;;467067;252;1181;-46
2021/03/20 00:48:55;;;;;;;;;;;21.70;33.30;;;;;;467876;253;1087;-46
2021/03/20 00:50:56;;;;;;;;;;;21.70;33.40;;;;;;467470;253;1217;-46
2021/03/20 00:52:58;;;;;;;;;;;21.70;33.40;;;;;;468883;253;1211;-46
2021/03/20 00:54:59;;;;;;;;;;;21.70;33.30;;;;;;467063;254;1108;-46
2021/03/20 00:57:00;;;;;;;;;;;21.70;33.40;;;;;;467852;253;1174;-46
2021/03/20 00:59:02;;;;;;;;;;;21.70;33.30;;;;;;468035;254;1087;-45
2021/03/20 01:01:03;;;;;;;;;;;21.70;33.30;;;;;;467572;252;1463;-46
2021/03/20 01:03:04;;;;;;;;;;;21.70;33.30;;;;;;468866;252;2152;-46
2021/03/20 01:05:06;;;;;;;;;;;21.70;33.30;;;;;;467078;253;1156;-46
2021/03/20 01:07:07;;;;;;;;;;;21.70;33.30;;;;;;467812;255;1188;-46
2021/03/20 01:09:08;;;;;;;;;;;21.70;33.30;;;;;;467533;253;1174;-46
2021/03/20 01:11:09;;;;;;;;;;;21.70;33.30;;;;;;468953;253;1141;-46
2021/03/20 01:13:11;;;;;;;;;;;21.70;33.30;;;;;;467079;254;1052;-46
2021/03/20 01:15:12;;;;;;;;;;;21.70;33.30;;;;;;467786;253;1060;-46
2021/03/20 01:17:13;;;;;;;;;;;21.70;33.30;;;;;;467802;254;1109;-46
2021/03/20 01:19:14;;;;;;;;;;;21.70;33.30;;;;;;467553;253;1223;-46
2021/03/20 01:21:16;;;;;;;;;;;21.70;33.30;;;;;;468770;252;1291;-46
2021/03/20 01:23:17;;;;;;;;;;;21.70;33.20;;;;;;466981;254;2394;-46
2021/03/20 01:25:18;;;;;;;;;;;21.70;33.20;;;;;;468075;253;1118;-46
2021/03/20 01:27:20;;;;;;;;;;;21.70;33.20;;;;;;467788;254;1065;-46
2021/03/20 01:29:21;;;;;;;;;;;21.70;33.20;;;;;;467538;252;1068;-46
2021/03/20 01:31:23;;;;;;;;;;;21.80;33.30;;;;;;469051;253;1095;-46
2021/03/20 01:33:24;;;;;;;;;;;21.70;33.30;;;;;;467086;253;1086;-46
2021/03/20 01:35:25;;;;;;;;;;;21.80;33.20;;;;;;468025;255;1212;-46
2021/03/20 01:37:26;;;;;;;;;;;21.80;33.20;;;;;;467939;254;1063;-46
2021/03/20 01:39:28;;;;;;;;;;;21.80;33.20;;;;;;468028;254;1037;-46
2021/03/20 01:41:29;;;;;;;;;;;21.80;33.20;;;;;;467930;254;1131;-46
2021/03/20 01:43:30;;;;;;;;;;;21.80;33.20;;;;;;467683;253;2149;-46
2021/03/20 01:45:31;;;;;;;;;;;21.80;33.20;;;;;;468791;253;1033;-45
2021/03/20 01:47:33;;;;;;;;;;;21.80;33.20;;;;;;466957;252;1075;-46
2021/03/20 01:49:34;;;;;;;;;;;21.80;33.30;;;;;;467903;253;1053;-46
2021/03/20 01:51:35;;;;;;;;;;;21.80;33.20;;;;;;469000;254;1218;-46
2021/03/20 01:53:37;;;;;;;;;;;21.80;33.20;;;;;;469448;254;1041;-46
2021/03/20 01:55:38;;;;;;;;;;;21.80;33.20;;;;;;467535;252;1065;-46
2021/03/20 01:57:39;;;;;;;;;;;21.80;33.20;;;;;;468804;253;1175;-46
2021/03/20 01:59:40;;;;;;;;;;;21.80;33.20;;;;;;467055;252;1022;-46
2021/03/20 02:01:42;;;;;;;;;;;21.80;33.20;;;;;;467781;253;1491;-46
2021/03/20 02:03:43;;;;;;;;;;;21.80;33.20;;;;;;467916;254;2200;-46
2021/03/20 02:05:44;;;;;;;;;;;21.80;33.20;;;;;;467838;254;1297;-46
2021/03/20 02:07:46;;;;;;;;;;;21.80;33.20;;;;;;467895;254;1181;-46
2021/03/20 02:09:47;;;;;;;;;;;21.80;33.20;;;;;;467815;254;1118;-46
2021/03/20 02:11:48;;;;;;;;;;;21.80;33.20;;;;;;469205;254;1062;-46
2021/03/20 02:13:49;;;;;;;;;;;21.80;33.20;;;;;;469621;253;982;-46
2021/03/20 02:15:51;;;;;;;;;;;21.80;33.20;;;;;;467741;252;1113;-46
2021/03/20 02:17:52;;;;;;;;;;;21.80;33.20;;;;;;468908;252;972;-46
2021/03/20 02:19:53;;;;;;;;;;;21.80;33.20;;;;;;467036;253;977;-46
2021/03/20 02:21:55;;;;;;;;;;;21.80;33.20;;;;;;467848;253;1212;-45
2021/03/20 02:23:56;;;;;;;;;;;21.80;33.20;;;;;;467880;254;2208;-46
2021/03/20 02:25:57;;;;;;;;;;;21.80;33.20;;;;;;469321;254;1099;-46
2021/03/20 02:27:58;;;;;;;;;;;21.80;33.20;;;;;;469629;253;1078;-45
2021/03/20 02:30:00;;;;;;;;;;;21.80;33.10;;;;;;467602;252;1171;-46
2021/03/20 02:32:02;;;;;;;;;;;21.80;33.20;;;;;;469058;253;1174;-46
2021/03/20 02:34:03;;;;;;;;;;;21.80;33.20;;;;;;467006;253;1342;-46
2021/03/20 02:36:04;;;;;;;;;;;21.80;33.20;;;;;;467987;255;1364;-46
2021/03/20 02:38:05;;;;;;;;;;;21.80;33.20;;;;;;467872;254;1047;-46
2021/03/20 02:40:07;;;;;;;;;;;21.80;33.20;;;;;;469200;253;1058;-46
2021/03/20 02:42:08;;;;;;;;;;;21.80;33.10;;;;;;469547;254;1044;-46
2021/03/20 02:44:09;;;;;;;;;;;21.80;33.10;;;;;;467530;253;2201;-46
2021/03/20 02:46:11;;;;;;;;;;;21.80;33.10;;;;;;468889;252;1076;-46
2021/03/20 02:48:12;;;;;;;;;;;21.90;33.20;;;;;;467076;252;1066;-46
2021/03/20 02:50:13;;;;;;;;;;;21.80;33.10;;;;;;468153;253;1061;-46
2021/03/20 02:52:14;;;;;;;;;;;21.80;33.10;;;;;;467580;252;1183;-46
2021/03/20 02:54:16;;;;;;;;;;;21.90;33.10;;;;;;468862;252;1059;-46
2021/03/20 02:56:17;;;;;;;;;;;21.90;33.10;;;;;;466973;254;1105;-46
2021/03/20 02:58:18;;;;;;;;;;;21.90;33.10;;;;;;467893;253;989;-46
2021/03/20 03:00:20;;;;;;;;;;;21.80;33.10;;;;;;467569;252;1466;-45
2021/03/20 03:02:21;;;;;;;;;;;21.90;33.10;;;;;;468921;252;1025;-46
2021/03/20 03:04:22;;;;;;;;;;;21.90;33.10;;;;;;467076;252;2142;-46
2021/03/20 03:06:24;;;;;;;;;;;21.90;33.10;;;;;;467826;255;1066;-46
2021/03/20 03:08:25;;;;;;;;;;;21.90;33.00;;;;;;467836;254;1267;-46
2021/03/20 03:10:26;;;;;;;;;;;21.90;33.00;;;;;;467794;254;1036;-46
2021/03/20 03:12:27;;;;;;;;;;;21.90;33.10;;;;;;467803;254;1046;-46
2021/03/20 03:14:29;;;;;;;;;;;21.90;33.10;;;;;;467849;254;1013;-46
2021/03/20 03:16:30;;;;;;;;;;;21.80;33.10;;;;;;469114;254;1078;-46
2021/03/20 03:18:31;;;;;;;;;;;21.90;33.20;;;;;;469705;253;1071;-46
2021/03/20 03:20:33;;;;;;;;;;;21.90;33.20;;;;;;467549;253;1031;-45
2021/03/20 03:22:34;;;;;;;;;;;21.90;33.20;;;;;;468877;252;1140;-46
2021/03/20 03:24:35;;;;;;;;;;;21.90;33.10;;;;;;467010;252;2197;-46
2021/03/20 03:26:37;;;;;;;;;;;21.90;33.10;;;;;;467757;255;1126;-46
2021/03/20 03:28:38;;;;;;;;;;;21.90;33.10;;;;;;467882;252;1058;-46
2021/03/20 03:30:39;;;;;;;;;;;21.90;33.10;;;;;;468878;252;1028;-46
2021/03/20 03:32:40;;;;;;;;;;;21.90;33.10;;;;;;467017;254;1245;-45
2021/03/20 03:34:42;;;;;;;;;;;21.90;33.20;;;;;;467867;253;1078;-46
2021/03/20 03:36:43;;;;;;;;;;;21.90;33.20;;;;;;467695;252;1180;-46
2021/03/20 03:38:44;;;;;;;;;;;21.90;33.10;;;;;;468856;253;1174;-46
2021/03/20 03:40:46;;;;;;;;;;;21.90;33.20;;;;;;466992;253;1064;-46
2021/03/20 03:42:47;;;;;;;;;;;21.80;33.10;;;;;;467893;253;1168;-46
2021/03/20 03:44:48;;;;;;;;;;;21.80;33.10;;;;;;467568;252;2149;-46
2021/03/20 03:46:50;;;;;;;;;;;21.80;33.10;;;;;;468985;253;1198;-46
2021/03/20 03:48:51;;;;;;;;;;;21.90;33.10;;;;;;467104;252;1090;-46
2021/03/20 03:50:52;;;;;;;;;;;21.90;33.10;;;;;;467783;253;1049;-45
2021/03/20 03:52:53;;;;;;;;;;;21.90;33.10;;;;;;467899;254;1249;-45
2021/03/20 03:54:55;;;;;;;;;;;21.90;33.20;;;;;;467988;254;1035;-45
2021/03/20 03:56:56;;;;;;;;;;;21.90;33.20;;;;;;469205;250;1210;-46
2021/03/20 03:58:57;;;;;;;;;;;21.90;33.10;;;;;;469585;253;985;-45
2021/03/20 04:00:59;;;;;;;;;;;21.90;33.10;;;;;;467595;253;1313;-45
2021/03/20 04:03:00;;;;;;;;;;;21.90;33.10;;;;;;468931;252;1409;-45
2021/03/20 04:05:01;;;;;;;;;;;21.90;33.10;;;;;;467073;252;2193;-45
2021/03/20 04:07:02;;;;;;;;;;;21.90;33.10;;;;;;468152;253;981;-45
2021/03/20 04:09:04;;;;;;;;;;;21.90;33.10;;;;;;467533;252;1121;-45
2021/03/20 04:11:05;;;;;;;;;;;21.90;33.00;;;;;;468952;252;1096;-45
2021/03/20 04:13:06;;;;;;;;;;;21.90;33.00;;;;;;467058;252;1047;-45
2021/03/20 04:15:08;;;;;;;;;;;21.90;33.10;;;;;;467998;253;1016;-46
2021/03/20 04:17:09;;;;;;;;;;;21.90;33.10;;;;;;467936;254;1121;-45
2021/03/20 04:19:10;;;;;;;;;;;21.90;33.10;;;;;;467634;253;1083;-45
2021/03/20 04:21:11;;;;;;;;;;;21.90;33.10;;;;;;468946;253;1091;-45
2021/03/20 04:23:13;;;;;;;;;;;21.90;33.10;;;;;;467121;253;1193;-45
2021/03/20 04:25:14;;;;;;;;;;;21.90;33.10;;;;;;467835;255;2204;-45
2021/03/20 04:27:15;;;;;;;;;;;21.90;33.00;;;;;;467847;252;1056;-45
2021/03/20 04:29:16;;;;;;;;;;;21.90;33.10;;;;;;468834;252;1054;-45
2021/03/20 04:31:18;;;;;;;;;;;21.90;33.00;;;;;;466994;253;1119;-46
2021/03/20 04:33:19;;;;;;;;;;;21.90;33.10;;;;;;467750;255;1099;-45
2021/03/20 04:35:20;;;;;;;;;;;21.90;33.10;;;;;;467568;252;1060;-45
2021/03/20 04:37:22;;;;;;;;;;;21.90;33.10;;;;;;468853;252;1052;-45
2021/03/20 04:39:23;;;;;;;;;;;21.90;33.10;;;;;;467032;252;1170;-45
2021/03/20 04:41:24;;;;;;;;;;;21.90;33.00;;;;;;467800;253;1087;-45
2021/03/20 04:43:25;;;;;;;;;;;21.90;33.00;;;;;;467771;252;1094;-45
2021/03/20 04:45:27;;;;;;;;;;;21.90;33.00;;;;;;469027;253;2200;-45
2021/03/20 04:47:28;;;;;;;;;;;21.90;33.00;;;;;;467194;254;1034;-45
2021/03/20 04:49:29;;;;;;;;;;;21.90;33.00;;;;;;467894;253;1019;-45
2021/03/20 04:51:31;;;;;;;;;;;21.90;33.00;;;;;;467487;253;1027;-45
2021/03/20 04:53:32;;;;;;;;;;;21.90;33.00;;;;;;468851;252;1288;-45
2021/03/20 04:55:33;;;;;;;;;;;21.90;33.00;;;;;;467260;254;1068;-45
2021/03/20 04:57:34;;;;;;;;;;;22.00;33.00;;;;;;467910;255;1053;-46
2021/03/20 04:59:36;;;;;;;;;;;22.00;32.90;;;;;;467782;254;1081;-45
2021/03/20 05:01:37;;;;;;;;;;;22.00;33.00;;;;;;467558;253;1059;-45
2021/03/20 05:03:38;;;;;;;;;;;22.00;33.00;;;;;;468919;253;2200;-45
2021/03/20 05:05:40;;;;;;;;;;;22.00;32.90;;;;;;467032;253;1077;-46
2021/03/20 05:07:41;;;;;;;;;;;22.00;33.00;;;;;;467874;253;1134;-45
2021/03/20 05:09:42;;;;;;;;;;;22.00;32.90;;;;;;467839;254;1215;-45
2021/03/20 05:11:43;;;;;;;;;;;22.00;33.00;;;;;;467539;253;1118;-45
2021/03/20 05:13:45;;;;;;;;;;;22.00;32.90;;;;;;469029;252;1078;-45
2021/03/20 05:15:46;;;;;;;;;;;22.00;33.00;;;;;;467098;253;1079;-45
2021/03/20 05:17:47;;;;;;;;;;;22.00;32.90;;;;;;467855;253;1130;-45
2021/03/20 05:19:49;;;;;;;;;;;22.00;32.90;;;;;;467741;253;1043;-45
2021/03/20 05:21:50;;;;;;;;;;;22.00;33.00;;;;;;468816;252;1127;-45
2021/03/20 05:23:52;;;;;;;;;;;22.00;32.90;;;;;;467051;254;2174;-45
2021/03/20 05:25:53;;;;;;;;;;;22.00;32.90;;;;;;467857;253;1056;-45
2021/03/20 05:27:54;;;;;;;;;;;22.00;33.00;;;;;;467849;254;1060;-45
2021/03/20 05:29:55;;;;;;;;;;;22.00;33.00;;;;;;467561;253;1068;-45
2021/03/20 05:31:57;;;;;;;;;;;22.00;33.00;;;;;;468739;252;1232;-45
2021/03/20 05:33:59;;;;;;;;;;;21.90;33.00;;;;;;466970;254;1055;-45
2021/03/20 05:36:01;;;;;;;;;;;21.90;33.00;;;;;;467962;253;1187;-45
2021/03/20 05:38:02;;;;;;;;;;;22.00;33.00;;;;;;467853;254;1261;-45
2021/03/20 05:40:03;;;;;;;;;;;22.00;32.90;;;;;;467657;252;1207;-45
2021/03/20 05:42:05;;;;;;;;;;;22.00;32.90;;;;;;468819;253;1252;-45
2021/03/20 05:44:06;;;;;;;;;;;22.00;32.90;;;;;;467153;254;2161;-45
2021/03/20 05:46:07;;;;;;;;;;;22.00;32.90;;;;;;467744;249;1423;-45
2021/03/20 05:48:09;;;;;;;;;;;22.00;32.90;;;;;;467586;251;1366;-45
2021/03/20 05:50:10;;;;;;;;;;;22.00;32.90;;;;;;469035;252;1076;-45
2021/03/20 05:52:11;;;;;;;;;;;22.00;32.90;;;;;;467196;252;1117;-45
2021/03/20 05:54:13;;;;;;;;;;;22.00;32.90;;;;;;467775;253;1080;-45
2021/03/20 05:56:14;;;;;;;;;;;22.00;32.80;;;;;;467715;252;1055;-45
2021/03/20 05:58:15;;;;;;;;;;;22.00;32.90;;;;;;468854;252;1087;-45
2021/03/20 06:00:16;;;;;;;;;;;22.00;32.90;;;;;;467032;252;1313;-45
2021/03/20 06:02:18;;;;;;;;;;;22.00;32.90;;;;;;467900;253;1072;-45
2021/03/20 06:04:19;;;;;;;;;;;22.00;32.90;;;;;;467794;254;2209;-45
2021/03/20 06:06:20;;;;;;;;;;;22.00;32.90;;;;;;467560;252;981;-45
2021/03/20 06:08:22;;;;;;;;;;;22.00;32.90;;;;;;468895;252;1076;-45
2021/03/20 06:10:23;;;;;;;;;;;22.00;33.00;;;;;;467090;252;1129;-45
2021/03/20 06:12:24;;;;;;;;;;;22.00;32.90;;;;;;467845;253;1110;-45
2021/03/20 06:14:25;;;;;;;;;;;22.00;32.90;;;;;;467577;253;1097;-45
2021/03/20 06:16:27;;;;;;;;;;;22.00;32.90;;;;;;468902;253;1157;-45
2021/03/20 06:18:28;;;;;;;;;;;22.00;32.80;;;;;;467349;253;1084;-45
2021/03/20 06:20:30;;;;;;;;;;;22.00;32.90;;;;;;467850;255;1054;-45
2021/03/20 06:22:31;;;;;;;;;;;22.10;32.80;;;;;;467850;254;1248;-45
2021/03/20 06:24:33;;;;;;;;;;;21.90;32.90;;;;;;467623;253;2168;-45
2021/03/20 06:26:34;;;;;;;;;;;21.30;33.90;;;;;;468928;253;1433;-45
2021/03/20 06:28:36;;;;;;;;;;;20.70;35.00;;;;;;467042;253;1148;-45
2021/03/20 06:30:37;;;;;;;;;;;20.20;35.90;;;;;;467814;253;1395;-45
2021/03/20 06:32:39;;;;;;;;;;;19.90;36.50;;;;;;468040;254;1164;-45
2021/03/20 06:34:40;;;;;;;;;;;19.60;37.00;;;;;;467772;252;1067;-45
2021/03/20 06:36:42;;;;;;;;;;;19.40;37.40;;;;;;469044;253;1359;-45
2021/03/20 06:38:42;;;;;;;;;;;19.20;37.70;;;;;;466999;253;1575;-45
2021/03/20 06:40:44;;;;;;;;;;;19.10;38.00;;;;;;467912;253;1211;-45
2021/03/20 06:42:45;;;;;;;;;;;19.00;38.10;;;;;;467572;253;1250;-45
2021/03/20 06:44:46;;;;;;;;;;;18.90;38.30;;;;;;468858;253;2163;-45
2021/03/20 06:46:48;;;;;;;;;;;18.80;38.50;;;;;;467168;252;1295;-45
2021/03/20 06:48:49;;;;;;;;;;;18.80;38.50;;;;;;467993;253;1205;-45
2021/03/20 06:50:50;;;;;;;;;;;18.70;38.70;;;;;;467656;252;1266;-45
2021/03/20 06:52:52;;;;;;;;;;;18.60;38.70;;;;;;468891;253;1081;-45
2021/03/20 06:54:53;;;;;;;;;;;18.60;38.80;;;;;;467181;253;1204;-45
2021/03/20 06:56:54;;;;;;;;;;;18.60;38.90;;;;;;467864;253;1179;-45
2021/03/20 06:58:57;;;;;;;;;;;18.50;39.00;;;;;;467797;252;1068;-45
2021/03/20 07:00:58;;;;;;;;;;;18.40;39.00;;;;;;468816;252;1263;-45
2021/03/20 07:02:59;;;;;;;;;;;18.40;39.10;;;;;;467225;254;1133;-45
2021/03/20 07:05:01;;;;;;;;;;;18.40;39.20;;;;;;468131;253;2137;-45
2021/03/20 07:07:02;;;;;;;;;;;18.30;39.20;;;;;;468230;254;1054;-45
2021/03/20 07:09:03;;;;;;;;;;;18.30;39.20;;;;;;467972;254;1045;-45
2021/03/20 07:11:04;;;;;;;;;;;18.30;39.30;;;;;;469178;254;1179;-45
2021/03/20 07:13:06;;;;;;;;;;;18.20;39.30;;;;;;469701;253;1053;-45
2021/03/20 07:15:07;;;;;;;;;;;18.20;39.40;;;;;;468093;254;1085;-45
2021/03/20 07:17:08;;;;;;;;;;;18.20;39.40;;;;;;467904;254;1075;-45
2021/03/20 07:19:10;;;;;;;;;;;18.20;39.40;;;;;;467542;252;1054;-45
2021/03/20 07:21:11;;;;;;;;;;;18.10;39.40;;;;;;469031;252;1111;-45
2021/03/20 07:23:12;;;;;;;;;;;18.10;39.50;;;;;;467227;254;1090;-45
2021/03/20 07:25:14;;;;;;;;;;;18.00;39.50;;;;;;467880;253;2154;-45
2021/03/20 07:27:15;;;;;;;;;;;18.10;39.50;;;;;;467601;252;1228;-45
2021/03/20 07:29:16;;;;;;;;;;;18.00;39.50;;;;;;468865;253;1084;-45
2021/03/20 07:31:17;;;;;;;;;;;18.00;39.60;;;;;;467034;254;1089;-45
2021/03/20 07:33:19;;;;;;;;;;;18.00;39.60;;;;;;467861;255;1113;-45
2021/03/20 07:35:20;;;;;;;;;;;18.00;39.60;;;;;;467842;254;1202;-44
2021/03/20 07:37:21;;;;;;;;;;;17.90;39.70;;;;;;467800;254;1061;-45
2021/03/20 07:39:24;;;;;;;;;;;17.90;39.70;;;;;;467590;253;1088;-45
2021/03/20 07:41:24;;;;;;;;;;;17.90;39.70;;;;;;468894;253;2108;-45
2021/03/20 07:43:25;;;;;;;;;;;17.90;39.70;;;;;;467019;253;1056;-45
2021/03/20 07:45:26;;;;;;;;;;;17.80;39.70;;;;;;467840;253;2200;-45
2021/03/20 07:47:28;;;;;;;;;;;17.80;39.70;;;;;;467808;254;1158;-45
2021/03/20 07:49:29;;;;;;;;;;;17.80;39.80;;;;;;467730;252;1137;-45
2021/03/20 07:51:30;;;;;;;;;;;17.70;39.80;;;;;;469188;253;1108;-45
2021/03/20 07:53:32;;;;;;;;;;;17.70;39.90;;;;;;467085;252;1080;-45
2021/03/20 07:55:33;;;;;;;;;;;17.70;39.80;;;;;;467824;253;1197;-45
2021/03/20 07:57:34;;;;;;;;;;;17.90;39.60;;;;;;467816;254;1284;-45
2021/03/20 07:59:35;;;;;;;;;;;18.30;38.70;;;;;;467622;252;1030;-45
2021/03/20 08:01:37;;;;;;;;;;;18.90;37.70;;;;;;468926;251;1166;-45
2021/03/20 08:03:38;;;;;;;;;;;19.30;36.90;;;;;;467096;255;1021;-45
2021/03/20 08:05:39;;;;;;;;;;;19.50;36.30;;;;;;467830;255;2152;-45
2021/03/20 08:07:41;;;;;;;;;;;19.70;35.90;;;;;;467721;252;1175;-45
2021/03/20 08:09:42;;;;;;;;;;;19.90;35.60;;;;;;469007;252;1104;-45
2021/03/20 08:11:44;;;;;;;;;;;20.00;35.40;;;;;;467058;252;1230;-45
2021/03/20 08:13:45;;;;;;;;;;;20.10;35.20;;;;;;468129;253;1058;-45
2021/03/20 08:15:46;;;;;;;;;;;20.10;35.00;;;;;;467633;253;1010;-45
2021/03/20 08:17:47;;;;;;;;;;;20.30;35.00;;;;;;468868;252;1240;-45
2021/03/20 08:19:48;;;;;;;;;;;20.30;34.80;;;;;;467000;252;1076;-45
2021/03/20 08:21:50;;;;;;;;;;;20.30;34.80;;;;;;467756;255;1122;-45
2021/03/20 08:23:51;;;;;;;;;;;20.30;34.60;;;;;;467593;253;1082;-45
2021/03/20 08:25:52;;;;;;;;;;;20.40;34.60;;;;;;468920;253;2160;-45
2021/03/20 08:27:54;;;;;;;;;;;20.40;34.40;;;;;;467009;253;1116;-45
2021/03/20 08:29:55;;;;;;;;;;;20.50;34.40;;;;;;468224;255;1098;-45
2021/03/20 08:31:56;;;;;;;;;;;20.50;34.30;;;;;;467755;253;1190;-45
2021/03/20 08:33:57;;;;;;;;;;;20.60;34.20;;;;;;468873;253;1122;-45
2021/03/20 08:35:59;;;;;;;;;;;20.60;34.20;;;;;;467265;253;1096;-45
2021/03/20 08:38:00;;;;;;;;;;;20.70;34.10;;;;;;467825;253;1201;-45
2021/03/20 08:40:04;;;;;;;;;;;20.70;34.00;;;;;;467843;254;1057;-45
2021/03/20 08:42:02;;;;;;;;;;;20.70;33.90;;;;;;467823;254;2309;-45
2021/03/20 08:44:04;;;;;;;;;;;20.70;33.90;;;;;;468030;254;1052;-45
2021/03/20 08:46:05;;;;;;;;;;;20.80;33.90;;;;;;467693;252;2153;-45
2021/03/20 08:48:06;;;;;;;;;;;20.80;33.80;;;;;;468817;254;1173;-45
2021/03/20 08:50:08;;;;;;;;;;;20.90;33.80;;;;;;466996;253;1116;-45
2021/03/20 08:52:09;;;;;;;;;;;20.80;33.70;;;;;;467807;253;1224;-45
2021/03/20 08:54:10;;;;;;;;;;;20.90;33.80;;;;;;467895;254;1095;-45
2021/03/20 08:56:11;;;;;;;;;;;20.90;33.70;;;;;;467536;253;1384;-45
2021/03/20 08:58:13;;;;;;;;;;;21.00;33.70;;;;;;468830;252;1062;-45
2021/03/20 09:00:14;;;;;;;;;;;21.00;33.70;;;;;;467202;252;1055;-45
2021/03/20 09:02:15;;;;;;;;;;;21.00;33.60;;;;;;467727;253;1075;-45
2021/03/20 09:04:16;;;;;;;;;;;21.00;33.60;;;;;;469475;254;1134;-45
2021/03/20 09:06:18;;;;;;;;;;;21.00;33.60;;;;;;469572;253;2204;-45
2021/03/20 09:08:20;;;;;;;;;;;21.00;33.60;;;;;;469152;254;1081;-45
2021/03/20 09:10:20;;;;;;;;;;;21.00;33.50;;;;;;469706;253;1072;-45
2021/03/20 09:12:22;;;;;;;;;;;21.10;33.50;;;;;;467700;252;1159;-45
2021/03/20 09:14:23;;;;;;;;;;;21.10;33.50;;;;;;469060;252;1072;-45
2021/03/20 09:16:24;;;;;;;;;;;21.10;33.50;;;;;;467022;252;1018;-45
2021/03/20 09:18:26;;;;;;;;;;;21.10;33.40;;;;;;467870;253;1039;-45
2021/03/20 09:20:27;;;;;;;;;;;21.10;33.40;;;;;;469099;254;2328;-45
2021/03/20 09:22:28;;;;;;;;;;;21.10;33.40;;;;;;469650;254;1097;-45
2021/03/20 09:24:29;;;;;;;;;;;21.10;33.40;;;;;;469192;254;1048;-45
2021/03/20 09:26:31;;;;;;;;;;;21.10;33.30;;;;;;469842;253;2207;-45
2021/03/20 09:28:32;;;;;;;;;;;21.20;33.40;;;;;;467644;252;1068;-45
2021/03/20 09:30:33;;;;;;;;;;;21.20;33.30;;;;;;469023;253;1087;-45
2021/03/20 09:32:34;;;;;;;;;;;21.20;33.40;;;;;;466955;255;1181;-45
2021/03/20 09:34:37;;;;;;;;;;;21.20;33.30;;;;;;467846;253;1216;-45
2021/03/20 09:36:37;;;;;;;;;;;21.20;33.40;;;;;;464696;255;1922;-45
2021/03/20 09:38:38;;;;;;;;;;;21.20;33.30;;;;;;467919;252;1054;-45
2021/03/20 09:40:40;;;;;;;;;;;21.20;33.30;;;;;;469772;254;1036;-45
2021/03/20 09:42:41;;;;;;;;;;;21.20;33.20;;;;;;467860;254;1311;-45
2021/03/20 09:44:42;;;;;;;;;;;21.20;33.20;;;;;;469149;254;1059;-45
2021/03/20 09:46:44;;;;;;;;;;;21.20;33.20;;;;;;469582;254;2200;-45
2021/03/20 09:48:45;;;;;;;;;;;21.20;33.20;;;;;;467766;254;2372;-45
2021/03/20 09:50:46;;;;;;;;;;;21.30;33.20;;;;;;467798;254;1087;-45
2021/03/20 09:52:47;;;;;;;;;;;21.30;33.20;;;;;;467839;254;1149;-45
2021/03/20 09:54:48;;;;;;;;;;;21.30;33.20;;;;;;467654;253;1044;-45
2021/03/20 09:56:50;;;;;;;;;;;21.30;33.20;;;;;;468827;252;1163;-45
2021/03/20 09:58:51;;;;;;;;;;;21.30;33.20;;;;;;467130;253;974;-45
2021/03/20 10:00:52;;;;;;;;;;;21.30;33.10;;;;;;467682;255;1132;-45
2021/03/20 10:02:54;;;;;;;;;;;21.30;33.10;;;;;;467825;254;1106;-45
2021/03/20 10:04:55;;;;;;;;;;;21.30;33.10;;;;;;467704;253;1043;-45
2021/03/20 10:06:56;;;;;;;;;;;21.30;33.10;;;;;;468810;252;2183;-45
2021/03/20 10:08:57;;;;;;;;;;;21.40;33.10;;;;;;467155;253;1113;-45
2021/03/20 10:10:59;;;;;;;;;;;21.30;33.10;;;;;;467794;253;1131;-45
2021/03/20 10:13:00;;;;;;;;;;;21.40;33.10;;;;;;467731;254;1248;-45
2021/03/20 10:15:01;;;;;;;;;;;21.40;33.10;;;;;;467798;254;1099;-45
2021/03/20 10:17:03;;;;;;;;;;;21.40;33.10;;;;;;467474;253;1129;-45
2021/03/20 10:19:04;;;;;;;;;;;21.30;33.10;;;;;;468850;253;1060;-45
2021/03/20 10:21:05;;;;;;;;;;;21.40;33.10;;;;;;466909;254;1065;-45
2021/03/20 10:23:07;;;;;;;;;;;21.40;33.10;;;;;;467827;253;1261;-45
2021/03/20 10:25:08;;;;;;;;;;;21.40;33.10;;;;;;467587;253;1065;-45
2021/03/20 10:27:09;;;;;;;;;;;21.40;33.10;;;;;;468875;253;2200;-45
2021/03/20 10:29:11;;;;;;;;;;;21.40;33.10;;;;;;466991;253;1105;-45
2021/03/20 10:31:12;;;;;;;;;;;21.40;33.00;;;;;;467927;253;1372;-45
2021/03/20 10:33:13;;;;;;;;;;;21.40;33.10;;;;;;469192;254;1105;-45
2021/03/20 10:35:15;;;;;;;;;;;21.40;33.00;;;;;;469602;254;1138;-45
2021/03/20 10:37:16;;;;;;;;;;;21.40;33.00;;;;;;469292;254;1035;-45
2021/03/20 10:39:17;;;;;;;;;;;21.40;33.10;;;;;;469584;253;1092;-45
2021/03/20 10:41:19;;;;;;;;;;;21.40;33.10;;;;;;467585;253;1310;-45
2021/03/20 10:43:20;;;;;;;;;;;21.40;33.00;;;;;;468796;253;1218;-45
2021/03/20 10:45:23;;;;;;;;;;;21.50;33.00;;;;;;466999;253;1123;-45
2021/03/20 10:47:24;;;;;;;;;;;21.40;33.00;;;;;;467821;253;2217;-45
2021/03/20 10:49:25;;;;;;;;;;;21.40;33.00;;;;;;467887;254;1212;-45
2021/03/20 10:51:27;;;;;;;;;;;21.50;33.00;;;;;;467514;253;1209;-45
2021/03/20 10:53:28;;;;;;;;;;;21.40;33.00;;;;;;468834;252;1086;-45
2021/03/20 10:55:29;;;;;;;;;;;21.50;33.00;;;;;;466990;253;1068;-45
2021/03/20 10:57:30;;;;;;;;;;;21.50;33.00;;;;;;467758;255;1365;-45
2021/03/20 10:59:32;;;;;;;;;;;21.50;33.10;;;;;;467775;254;991;-45
2021/03/20 11:01:33;;;;;;;;;;;21.50;33.00;;;;;;467688;252;1125;-45
2021/03/20 11:03:35;;;;;;;;;;;21.50;33.00;;;;;;468869;252;1040;-45
2021/03/20 11:05:36;;;;;;;;;;;21.50;33.00;;;;;;467025;252;1434;-45
2021/03/20 11:07:37;;;;;;;;;;;21.50;33.00;;;;;;467984;253;2105;-45
2021/03/20 11:09:38;;;;;;;;;;;21.50;33.00;;;;;;467558;253;1075;-45
2021/03/20 11:11:39;;;;;;;;;;;21.50;33.00;;;;;;468776;250;1139;-45
2021/03/20 11:13:41;;;;;;;;;;;21.50;33.00;;;;;;467054;253;1209;-45
2021/03/20 11:15:42;;;;;;;;;;;21.50;33.00;;;;;;467815;255;1043;-45
2021/03/20 11:17:43;;;;;;;;;;;21.50;32.90;;;;;;467579;253;1276;-45
2021/03/20 11:19:44;;;;;;;;;;;21.50;32.90;;;;;;468787;252;1062;-45
2021/03/20 11:21:46;;;;;;;;;;;21.50;33.00;;;;;;466954;253;1214;-45
2021/03/20 11:23:47;;;;;;;;;;;21.50;32.90;;;;;;467862;255;1073;-45
2021/03/20 11:25:49;;;;;;;;;;;21.50;33.00;;;;;;469092;254;2181;-45
2021/03/20 11:27:50;;;;;;;;;;;21.60;33.00;;;;;;469519;254;1113;-45
2021/03/20 11:29:51;;;;;;;;;;;21.60;32.90;;;;;;467557;253;992;-44
2021/03/20 11:31:53;;;;;;;;;;;21.60;32.90;;;;;;468744;250;1276;-45
2021/03/20 11:33:54;;;;;;;;;;;21.60;32.90;;;;;;466978;252;1065;-45
2021/03/20 11:35:55;;;;;;;;;;;21.60;33.00;;;;;;467838;253;1166;-45
2021/03/20 11:38:00;;;;;;;;;;;21.60;33.00;;;;;;467793;254;1209;-46
2021/03/20 11:39:58;;;;;;;;;;;21.60;32.90;;;;;;467814;254;1995;-45
2021/03/20 11:42:00;;;;;;;;;;;21.50;32.90;;;;;;467669;252;1047;-45
2021/03/20 11:44:02;;;;;;;;;;;21.60;33.00;;;;;;468986;253;1203;-45
2021/03/20 11:46:03;;;;;;;;;;;21.60;33.00;;;;;;466968;253;2205;-45
2021/03/20 11:48:05;;;;;;;;;;;21.60;33.00;;;;;;467977;253;1081;-45
2021/03/20 11:50:06;;;;;;;;;;;21.60;32.90;;;;;;469257;254;1009;-45
2021/03/20 11:52:08;;;;;;;;;;;21.60;32.90;;;;;;469429;254;1109;-45
2021/03/20 11:54:09;;;;;;;;;;;21.60;32.90;;;;;;467572;253;1048;-45
2021/03/20 11:56:12;;;;;;;;;;;21.60;33.00;;;;;;468943;253;1063;-45